Time;durP1;ratioP1;P1;durP2;ratioP2;P2;SDS_P1;SDS_P2;PMS_P1;PMS_P2;Temp;Humidity;BMP_temperature;BMP_pressure;BME280_temperature;BME280_humidity;BME280_pressure;Samples;Min_cycle;Max_cycle;Signal;HPM_P1;HPM_P2
2023/01/23 00:00:34;;;;;;;18.45;6.95;;;2.50;99.90;;;;;;6298687;22;20019;-81
2023/01/23 00:03:00;;;;;;;18.58;6.78;;;2.10;99.90;;;;;;6306332;22;20014;-82
2023/01/23 00:05:26;;;;;;;19.92;6.65;;;2.30;99.90;;;;;;6306250;22;20045;-81
2023/01/23 00:07:52;;;;;;;20.83;6.70;;;2.20;99.90;;;;;;6332210;22;20061;-81
2023/01/23 00:10:17;;;;;;;17.05;7.38;;;2.10;99.90;;;;;;6306219;22;20398;-81
2023/01/23 00:12:44;;;;;;;19.40;7.25;;;2.10;99.90;;;;;;6280248;22;20093;-81
2023/01/23 00:15:11;;;;;;;18.35;6.82;;;2.10;99.90;;;;;;6304393;22;20298;-81
2023/01/23 00:17:40;;;;;;;15.80;6.57;;;3.20;99.90;;;;;;6305788;22;20029;-82
2023/01/23 00:20:08;;;;;;;12.45;6.15;;;2.80;99.90;;;;;;6304760;22;20093;-82
2023/01/23 00:22:34;;;;;;;16.00;6.38;;;2.10;99.90;;;;;;6333244;22;20346;-81
2023/01/23 00:24:59;;;;;;;14.77;6.03;;;2.50;99.90;;;;;;6304886;22;20019;-82
2023/01/23 00:27:25;;;;;;;14.05;7.63;;;2.30;99.90;;;;;;6306237;22;20011;-82
2023/01/23 00:29:52;;;;;;;16.10;6.47;;;2.10;99.90;;;;;;6303694;22;20019;-81
2023/01/23 00:32:18;;;;;;;13.77;6.63;;;2.80;99.90;;;;;;6333606;22;20102;-82
2023/01/23 00:34:45;;;;;;;15.90;6.65;;;2.20;99.90;;;;;;6333178;22;20079;-82
2023/01/23 00:37:11;;;;;;;18.83;8.15;;;3.40;99.90;;;;;;6304714;22;20015;-81
2023/01/23 00:39:37;;;;;;;15.25;6.40;;;2.90;99.90;;;;;;6305745;22;20034;-81
2023/01/23 00:42:03;;;;;;;18.83;6.50;;;2.30;99.90;;;;;;6303677;22;20026;-82
2023/01/23 00:44:29;;;;;;;16.77;6.60;;;2.10;99.90;;;;;;6305448;22;20343;-81
2023/01/23 00:46:56;;;;;;;18.92;6.85;;;2.20;99.90;;;;;;6304912;22;20026;-82
2023/01/23 00:49:22;;;;;;;16.42;7.35;;;3.40;99.90;;;;;;6304513;22;20518;-81
2023/01/23 00:51:47;;;;;;;16.92;6.90;;;2.60;99.90;;;;;;6279064;22;20027;-81
2023/01/23 00:54:13;;;;;;;14.05;6.72;;;3.20;99.90;;;;;;6305473;22;20030;-82
2023/01/23 00:56:39;;;;;;;13.60;6.30;;;3.00;99.90;;;;;;6332989;22;20014;-81
2023/01/23 00:59:05;;;;;;;12.32;6.60;;;3.10;99.90;;;;;;6304621;22;20019;-81
2023/01/23 01:01:31;;;;;;;18.77;6.50;;;2.20;99.90;;;;;;6304716;22;20053;-82
2023/01/23 01:03:58;;;;;;;16.35;6.90;;;2.10;99.90;;;;;;6298812;22;20019;-82
2023/01/23 01:06:24;;;;;;;13.32;6.72;;;2.80;99.90;;;;;;6299752;22;20414;-79
2023/01/23 01:08:49;;;;;;;15.93;6.57;;;2.90;99.90;;;;;;6299845;22;20431;-79
2023/01/23 01:11:15;;;;;;;15.15;6.40;;;3.40;99.90;;;;;;6273233;22;20085;-79
2023/01/23 01:13:42;;;;;;;14.35;6.72;;;3.20;99.90;;;;;;6302420;22;20015;-79
2023/01/23 01:16:08;;;;;;;21.92;7.28;;;3.30;99.90;;;;;;6299068;22;20027;-79
2023/01/23 01:18:34;;;;;;;16.08;6.63;;;3.30;99.90;;;;;;6301341;22;20027;-79
2023/01/23 01:21:00;;;;;;;16.58;6.13;;;2.10;99.90;;;;;;6299913;22;20055;-79
2023/01/23 01:23:25;;;;;;;16.75;6.63;;;3.10;99.90;;;;;;6300949;22;20049;-79
2023/01/23 01:25:51;;;;;;;14.27;6.35;;;2.10;99.90;;;;;;6272884;22;20406;-79
2023/01/23 01:28:17;;;;;;;13.13;6.25;;;3.50;99.90;;;;;;6300971;22;20098;-80
2023/01/23 01:30:43;;;;;;;12.65;5.97;;;2.60;99.90;;;;;;6299104;22;20089;-79
2023/01/23 01:33:10;;;;;;;18.23;6.25;;;2.90;99.90;;;;;;6299347;22;20051;-79
2023/01/23 01:35:38;;;;;;;14.82;6.05;;;2.60;99.90;;;;;;6300388;22;20465;-79
2023/01/23 01:38:04;;;;;;;12.27;6.30;;;2.30;99.90;;;;;;6299959;22;20023;-79
2023/01/23 01:40:33;;;;;;;15.13;5.65;;;2.60;99.90;;;;;;6299113;22;20023;-79
2023/01/23 01:43:03;;;;;;;12.48;5.97;;;2.30;99.90;;;;;;6299527;22;20429;-79
2023/01/23 01:46:01;;;;;;;14.63;6.80;;;2.10;99.90;;;;;;6301251;22;20094;-79
2023/01/23 01:48:31;;;;;;;15.82;6.22;;;2.10;99.90;;;;;;6274491;22;20027;-80
2023/01/23 01:50:59;;;;;;;15.93;6.95;;;2.20;99.90;;;;;;6298799;22;20030;-79
2023/01/23 01:53:27;;;;;;;19.15;6.93;;;2.20;99.90;;;;;;6299307;22;20069;-79
2023/01/23 01:55:55;;;;;;;14.63;7.00;;;2.50;99.90;;;;;;6273008;22;20015;-79
2023/01/23 01:58:21;;;;;;;15.32;6.72;;;2.70;99.90;;;;;;6300109;22;20573;-79
2023/01/23 02:00:47;;;;;;;12.43;6.53;;;2.30;99.90;;;;;;6299361;22;20107;-80
2023/01/23 02:03:15;;;;;;;16.52;6.80;;;2.10;99.90;;;;;;6299642;22;20042;-79
2023/01/23 02:05:45;;;;;;;14.88;6.60;;;2.60;99.90;;;;;;6300323;22;20046;-79
2023/01/23 02:08:20;;;;;;;14.68;7.18;;;2.00;99.90;;;;;;6301358;22;20362;-79
2023/01/23 02:10:46;;;;;;;17.92;6.72;;;2.00;99.90;;;;;;6298406;22;20156;-80
2023/01/23 02:13:20;;;;;;;14.15;6.90;;;2.40;99.90;;;;;;6274274;22;20404;-79
2023/01/23 02:15:46;;;;;;;14.55;6.75;;;2.00;99.90;;;;;;6299001;22;20015;-79
2023/01/23 02:18:12;;;;;;;19.08;7.35;;;2.40;99.90;;;;;;6300052;22;20394;-79
2023/01/23 02:20:38;;;;;;;13.93;7.10;;;2.20;99.90;;;;;;6272822;22;20034;-79
2023/01/23 02:23:23;;;;;;;17.67;6.90;;;2.00;99.90;;;;;;6298992;22;20174;-80
2023/01/23 02:25:54;;;;;;;15.95;7.80;;;2.60;99.90;;;;;;6301169;22;20026;-79
2023/01/23 02:28:20;;;;;;;15.07;6.45;;;2.00;99.90;;;;;;6298482;22;20102;-79
2023/01/23 02:30:46;;;;;;;11.93;6.63;;;2.90;99.90;;;;;;6298030;22;20042;-79
2023/01/23 02:33:18;;;;;;;14.07;7.15;;;2.10;99.90;;;;;;6299875;22;20034;-79
2023/01/23 02:35:44;;;;;;;15.30;7.43;;;2.50;99.90;;;;;;6299945;22;20015;-79
2023/01/23 02:38:11;;;;;;;17.88;7.07;;;3.00;99.90;;;;;;6300040;22;20015;-79
2023/01/23 02:40:39;;;;;;;13.75;6.57;;;2.70;99.90;;;;;;6299470;22;20019;-79
2023/01/23 02:43:08;;;;;;;15.30;7.72;;;2.90;99.90;;;;;;6300559;22;20011;-79
2023/01/23 02:45:34;;;;;;;16.88;7.80;;;3.10;99.90;;;;;;6299279;22;20094;-79
2023/01/23 02:48:00;;;;;;;15.27;8.10;;;2.00;99.90;;;;;;6298934;22;20019;-79
2023/01/23 02:50:27;;;;;;;22.92;7.22;;;3.00;99.90;;;;;;6298444;22;20068;-79
2023/01/23 02:52:53;;;;;;;17.33;7.38;;;2.30;99.90;;;;;;6299277;22;20058;-79
2023/01/23 02:55:20;;;;;;;16.38;8.30;;;2.90;99.90;;;;;;6299412;22;20015;-79
2023/01/23 02:57:46;;;;;;;15.95;7.60;;;2.90;99.90;;;;;;6298248;22;20336;-79
2023/01/23 03:00:19;;;;;;;17.17;7.45;;;3.20;99.90;;;;;;6299986;22;20094;-79
2023/01/23 03:02:49;;;;;;;15.47;7.83;;;2.00;99.90;;;;;;6300793;22;20100;-79
2023/01/23 03:05:16;;;;;;;15.73;7.32;;;2.50;99.90;;;;;;6304352;22;20295;-79
2023/01/23 03:07:42;;;;;;;20.95;8.43;;;2.00;99.90;;;;;;6305391;22;20353;-79
2023/01/23 03:10:10;;;;;;;14.57;7.63;;;2.00;99.90;;;;;;6303684;22;20026;-79
2023/01/23 03:12:41;;;;;;;19.38;7.90;;;2.00;99.90;;;;;;6305433;22;20327;-79
2023/01/23 03:15:08;;;;;;;16.67;7.57;;;2.00;99.90;;;;;;6303526;22;20022;-79
2023/01/23 03:17:35;;;;;;;17.20;8.82;;;2.00;99.90;;;;;;6303741;22;20063;-79
2023/01/23 03:20:03;;;;;;;16.88;8.32;;;2.70;99.90;;;;;;6332101;22;20151;-79
2023/01/23 03:22:28;;;;;;;14.32;8.30;;;2.10;99.90;;;;;;6304802;22;20015;-79
2023/01/23 03:24:56;;;;;;;16.02;8.15;;;2.40;99.90;;;;;;6303607;22;20494;-79
2023/01/23 03:27:22;;;;;;;16.90;8.82;;;2.00;99.90;;;;;;6304305;22;20086;-79
2023/01/23 03:32:32;;;;;;;20.17;8.68;;;2.00;99.90;;;;;;6303117;22;20021;-79
2023/01/23 03:34:58;;;;;;;19.13;8.15;;;2.80;99.90;;;;;;6302703;22;20054;-80
2023/01/23 03:37:24;;;;;;;23.52;8.45;;;2.10;99.90;;;;;;6332646;22;20041;-79
2023/01/23 03:42:34;;;;;;;17.75;8.18;;;2.60;99.90;;;;;;6304105;22;20080;-79
2023/01/23 03:45:00;;;;;;;14.40;8.20;;;2.00;99.90;;;;;;6302038;22;20022;-79
2023/01/23 03:47:26;;;;;;;14.52;7.63;;;2.70;99.90;;;;;;6304334;22;20015;-79
2023/01/23 03:49:52;;;;;;;18.75;8.32;;;2.00;99.90;;;;;;6302795;22;20444;-79
2023/01/23 03:52:18;;;;;;;18.90;8.13;;;2.20;99.90;;;;;;6303821;22;20026;-79
2023/01/23 03:54:43;;;;;;;15.55;8.70;;;2.60;99.90;;;;;;6303631;22;20021;-79
2023/01/23 03:57:10;;;;;;;14.25;7.95;;;3.00;99.90;;;;;;6332190;22;20011;-79
2023/01/23 03:59:36;;;;;;;17.17;8.82;;;2.50;99.90;;;;;;6330603;22;20446;-79
2023/01/23 04:02:03;;;;;;;18.38;8.38;;;2.90;99.90;;;;;;6303185;22;20019;-79
2023/01/23 04:04:30;;;;;;;12.90;7.53;;;3.20;99.90;;;;;;6332153;22;20049;-79
2023/01/23 04:06:56;;;;;;;16.25;9.00;;;1.40;99.90;;;;;;6302349;22;20019;-79
2023/01/23 04:09:28;;;;;;;17.48;7.70;;;2.00;99.90;;;;;;6304544;22;20037;-79
2023/01/23 04:11:54;;;;;;;15.68;7.47;;;2.70;99.90;;;;;;6277868;22;20092;-79
2023/01/23 04:14:22;;;;;;;14.43;7.80;;;2.00;99.90;;;;;;6331082;22;20096;-79
2023/01/23 04:16:48;;;;;;;15.25;8.88;;;2.00;99.90;;;;;;6277182;22;20370;-79
2023/01/23 04:19:18;;;;;;;16.00;7.22;;;2.10;99.90;;;;;;6304427;22;20430;-79
2023/01/23 04:21:45;;;;;;;16.92;7.93;;;2.00;99.90;;;;;;6302868;22;20015;-79
2023/01/23 04:24:10;;;;;;;15.00;8.00;;;2.00;99.90;;;;;;6278400;22;20010;-79
2023/01/23 04:26:36;;;;;;;19.35;7.72;;;2.00;99.90;;;;;;6332637;22;20099;-79
2023/01/23 04:29:03;;;;;;;13.63;7.70;;;2.00;99.90;;;;;;6276518;22;20026;-79
2023/01/23 04:31:29;;;;;;;16.25;6.80;;;3.00;99.90;;;;;;6331860;22;20114;-79
2023/01/23 04:33:55;;;;;;;20.00;7.45;;;2.80;99.90;;;;;;6302803;22;20019;-79
2023/01/23 04:36:21;;;;;;;14.57;6.32;;;2.50;99.90;;;;;;6303538;22;20010;-79
2023/01/23 04:38:47;;;;;;;14.90;6.65;;;2.50;99.90;;;;;;6303178;22;20015;-79
2023/01/23 04:41:20;;;;;;;17.23;7.00;;;2.90;99.90;;;;;;6302524;22;20023;-79
2023/01/23 04:43:46;;;;;;;15.60;7.05;;;2.30;99.90;;;;;;6278007;22;20180;-79
2023/01/23 04:46:11;;;;;;;14.40;6.78;;;2.40;99.90;;;;;;6331346;22;20042;-79
2023/01/23 04:48:37;;;;;;;15.27;7.35;;;2.00;99.90;;;;;;6305083;22;20060;-79
2023/01/23 04:51:03;;;;;;;15.13;7.90;;;2.00;99.90;;;;;;6332524;22;20022;-79
2023/01/23 04:53:29;;;;;;;14.75;7.45;;;2.00;99.90;;;;;;6305997;22;20053;-79
2023/01/23 04:55:55;;;;;;;15.02;7.60;;;2.80;99.90;;;;;;6304153;22;20018;-79
2023/01/23 04:58:20;;;;;;;15.15;7.88;;;2.70;99.90;;;;;;6279553;22;20026;-79
2023/01/23 05:00:46;;;;;;;14.27;7.55;;;2.30;99.90;;;;;;6303998;22;20492;-79
2023/01/23 05:03:13;;;;;;;16.98;7.45;;;2.70;99.90;;;;;;6304302;22;20011;-79
2023/01/23 05:05:39;;;;;;;18.95;8.60;;;3.30;99.90;;;;;;6305766;22;20022;-80
2023/01/23 05:08:05;;;;;;;17.75;8.23;;;2.10;99.90;;;;;;6304827;22;20036;-79
2023/01/23 05:10:30;;;;;;;19.63;8.18;;;1.90;99.90;;;;;;6304083;22;20022;-79
2023/01/23 05:12:56;;;;;;;13.68;8.20;;;1.90;99.90;;;;;;6304876;22;20015;-79
2023/01/23 05:15:22;;;;;;;15.25;8.18;;;2.60;99.90;;;;;;6304321;22;20046;-80
2023/01/23 05:17:48;;;;;;;23.58;9.30;;;2.40;99.90;;;;;;6331511;22;20019;-79
2023/01/23 05:20:14;;;;;;;13.40;8.15;;;2.20;99.90;;;;;;6305540;22;20534;-79
2023/01/23 05:22:51;;;;;;;16.65;8.27;;;2.90;99.90;;;;;;6303998;22;20042;-79
2023/01/23 05:25:20;;;;;;;18.00;8.95;;;1.90;99.90;;;;;;6304187;22;20019;-79
2023/01/23 05:27:46;;;;;;;19.85;9.23;;;2.00;99.90;;;;;;6330521;22;20007;-79
2023/01/23 05:30:12;;;;;;;16.67;8.13;;;2.90;99.90;;;;;;6332459;22;20078;-79
2023/01/23 05:32:37;;;;;;;17.63;8.68;;;2.00;99.90;;;;;;6304299;22;20027;-80
2023/01/23 05:35:03;;;;;;;23.17;9.80;;;2.10;99.90;;;;;;6303815;22;20010;-80
2023/01/23 05:37:29;;;;;;;14.30;8.88;;;1.90;99.90;;;;;;6278321;22;20104;-80
2023/01/23 05:39:54;;;;;;;21.42;8.85;;;2.90;99.90;;;;;;6304511;22;20023;-80
2023/01/23 05:42:20;;;;;;;18.98;9.40;;;2.50;99.90;;;;;;6305278;22;20015;-80
2023/01/23 05:44:46;;;;;;;18.95;9.70;;;2.30;99.90;;;;;;6303012;22;20875;-80
2023/01/23 05:47:11;;;;;;;16.00;9.40;;;2.30;99.90;;;;;;6333185;22;20015;-79
2023/01/23 05:49:37;;;;;;;20.88;9.43;;;1.90;99.90;;;;;;6332938;22;20034;-80
2023/01/23 05:52:03;;;;;;;16.73;9.18;;;2.60;99.90;;;;;;6304085;22;20200;-80
2023/01/23 05:54:28;;;;;;;17.05;9.18;;;2.00;99.90;;;;;;6333227;22;20044;-80
2023/01/23 05:56:54;;;;;;;16.23;8.90;;;3.10;99.90;;;;;;6332165;22;20014;-80
2023/01/23 05:59:20;;;;;;;18.15;8.93;;;1.90;99.90;;;;;;6277581;22;20583;-80
2023/01/23 06:01:45;;;;;;;20.48;9.10;;;3.00;99.90;;;;;;6303530;22;20015;-82
2023/01/23 06:04:15;;;;;;;16.75;8.77;;;2.90;99.90;;;;;;6305100;22;20011;-80
2023/01/23 06:06:42;;;;;;;22.98;10.55;;;2.40;99.90;;;;;;6303666;22;20026;-80
2023/01/23 06:09:08;;;;;;;21.65;9.68;;;3.00;99.90;;;;;;6304790;22;20081;-80
2023/01/23 06:11:34;;;;;;;16.08;9.07;;;2.40;99.90;;;;;;6304992;22;20038;-80
2023/01/23 06:14:00;;;;;;;20.30;9.40;;;2.70;99.90;;;;;;6302976;22;20038;-80
2023/01/23 06:16:25;;;;;;;16.05;8.43;;;1.90;99.90;;;;;;6278045;22;20025;-81
2023/01/23 06:18:51;;;;;;;16.13;9.73;;;2.60;99.90;;;;;;6331849;22;20024;-81
2023/01/23 06:21:17;;;;;;;18.73;9.55;;;2.30;99.90;;;;;;6303106;22;20459;-81
2023/01/23 06:23:45;;;;;;;15.70;9.13;;;2.60;99.90;;;;;;6331366;22;20050;-81
2023/01/23 06:26:12;;;;;;;21.95;9.30;;;3.10;99.90;;;;;;6304564;22;20046;-82
2023/01/23 06:28:37;;;;;;;16.50;10.40;;;2.80;99.90;;;;;;6304029;22;20037;-82
2023/01/23 06:31:05;;;;;;;19.30;9.32;;;2.10;99.90;;;;;;6302599;22;20019;-81
2023/01/23 06:33:31;;;;;;;18.52;9.52;;;1.90;99.90;;;;;;6304631;22;20043;-83
2023/01/23 06:36:02;;;;;;;16.70;9.20;;;1.90;99.90;;;;;;6277080;22;20029;-83
2023/01/23 06:38:28;;;;;;;17.10;9.07;;;1.90;99.90;;;;;;6303191;22;20147;-83
2023/01/23 06:40:54;;;;;;;15.52;9.38;;;1.90;99.90;;;;;;6302590;22;20089;-83
2023/01/23 06:43:22;;;;;;;20.98;9.52;;;3.00;99.90;;;;;;6304942;22;20046;-83
2023/01/23 06:45:48;;;;;;;16.67;9.25;;;2.70;99.90;;;;;;6302885;22;20054;-83
2023/01/23 06:48:14;;;;;;;17.13;9.02;;;3.00;99.90;;;;;;6304054;22;20011;-83
2023/01/23 06:50:41;;;;;;;18.88;9.45;;;2.70;99.90;;;;;;6304989;22;20022;-83
2023/01/23 06:53:08;;;;;;;18.95;9.57;;;3.00;99.90;;;;;;6304170;22;20050;-83
2023/01/23 06:55:35;;;;;;;22.50;10.70;;;2.90;99.90;;;;;;6331967;22;20019;-83
2023/01/23 06:58:01;;;;;;;22.23;9.63;;;2.00;99.90;;;;;;6303722;22;20400;-83
2023/01/23 07:00:26;;;;;;;18.88;10.63;;;2.00;99.90;;;;;;6278595;22;20435;-84
2023/01/23 07:02:52;;;;;;;19.48;9.07;;;2.80;99.90;;;;;;6302371;22;20022;-84
2023/01/23 07:05:19;;;;;;;19.17;10.55;;;2.00;99.90;;;;;;6304385;22;20026;-83
2023/01/23 07:07:45;;;;;;;21.15;10.05;;;1.90;99.90;;;;;;6278381;22;20330;-84
2023/01/23 07:10:11;;;;;;;15.30;10.02;;;2.50;99.90;;;;;;6277421;22;20076;-83
2023/01/23 07:12:37;;;;;;;18.55;9.35;;;2.30;99.90;;;;;;6332820;22;20015;-83
2023/01/23 07:15:03;;;;;;;21.27;10.60;;;2.60;99.90;;;;;;6303565;22;20026;-83
2023/01/23 07:17:32;;;;;;;21.42;10.63;;;1.90;99.90;;;;;;6278377;22;20038;-84
2023/01/23 07:19:58;;;;;;;17.58;9.38;;;2.20;99.90;;;;;;6278343;22;20757;-83
2023/01/23 07:22:23;;;;;;;16.55;10.68;;;2.00;99.90;;;;;;6304324;22;20064;-83
2023/01/23 07:24:49;;;;;;;14.30;9.13;;;2.00;99.90;;;;;;6303670;22;20015;-84
2023/01/23 07:27:15;;;;;;;14.48;9.88;;;3.10;99.90;;;;;;6304967;22;20015;-83
2023/01/23 07:29:42;;;;;;;22.38;11.15;;;1.90;99.90;;;;;;6330523;22;20320;-84
2023/01/23 07:32:07;;;;;;;22.30;10.88;;;2.00;99.90;;;;;;6302989;22;20475;-83
2023/01/23 07:34:33;;;;;;;13.98;9.00;;;3.00;99.90;;;;;;6303875;22;20057;-83
2023/01/23 07:37:00;;;;;;;19.50;10.35;;;2.00;99.90;;;;;;6302737;22;20384;-82
2023/01/23 07:39:26;;;;;;;16.40;10.50;;;3.00;99.90;;;;;;6278119;22;20088;-84
2023/01/23 07:41:51;;;;;;;23.48;10.38;;;2.60;99.90;;;;;;6303507;22;20019;-83
2023/01/23 07:44:20;;;;;;;15.82;9.48;;;2.90;99.90;;;;;;6303021;22;20006;-83
2023/01/23 07:46:47;;;;;;;16.55;9.88;;;3.10;99.90;;;;;;6276914;22;20449;-83
2023/01/23 07:49:13;;;;;;;15.20;10.18;;;2.60;99.90;;;;;;6304717;22;20779;-84
2023/01/23 07:51:39;;;;;;;13.70;8.65;;;2.00;99.90;;;;;;6303013;22;20365;-83
2023/01/23 07:54:05;;;;;;;15.43;9.63;;;2.70;99.90;;;;;;6277938;22;20084;-83
2023/01/23 07:56:31;;;;;;;17.17;9.23;;;2.00;99.90;;;;;;6304165;22;20006;-83
2023/01/23 07:58:57;;;;;;;16.70;9.32;;;3.10;99.90;;;;;;6302461;22;20320;-83
2023/01/23 08:01:23;;;;;;;18.15;9.75;;;2.60;99.90;;;;;;6303124;22;20387;-83
2023/01/23 08:03:49;;;;;;;15.30;8.98;;;2.50;99.90;;;;;;6303113;22;20015;-83
2023/01/23 08:06:15;;;;;;;16.70;9.02;;;2.80;99.90;;;;;;6303680;22;20095;-83
2023/01/23 08:08:40;;;;;;;13.27;7.95;;;2.00;99.90;;;;;;6304412;22;20115;-83
2023/01/23 08:11:12;;;;;;;16.42;8.75;;;2.60;99.90;;;;;;6277910;22;20022;-83
2023/01/23 08:13:38;;;;;;;15.70;8.30;;;3.10;99.90;;;;;;6303926;22;20053;-83
2023/01/23 08:16:05;;;;;;;15.60;8.00;;;2.60;99.90;;;;;;6303171;22;20037;-83
2023/01/23 08:18:31;;;;;;;14.93;7.78;;;2.10;99.90;;;;;;6278878;22;20022;-83
2023/01/23 08:20:59;;;;;;;11.52;7.72;;;2.50;99.90;;;;;;6277076;22;20030;-83
2023/01/23 08:23:26;;;;;;;11.70;6.75;;;3.00;99.90;;;;;;6334360;22;20450;-84
2023/01/23 08:25:54;;;;;;;14.02;7.32;;;2.10;99.90;;;;;;6305226;22;20018;-84
2023/01/23 08:28:20;;;;;;;11.95;6.63;;;2.10;99.90;;;;;;6279071;22;20038;-83
2023/01/23 08:30:46;;;;;;;12.00;6.90;;;2.20;99.90;;;;;;6304380;22;20022;-83
2023/01/23 08:33:12;;;;;;;10.43;6.35;;;3.20;99.90;;;;;;6305767;22;20011;-83
2023/01/23 08:35:38;;;;;;;11.23;6.07;;;3.10;99.90;;;;;;6305207;22;20030;-84
2023/01/23 08:38:04;;;;;;;9.23;5.55;;;2.80;99.90;;;;;;6304313;22;20479;-82
2023/01/23 08:40:30;;;;;;;10.57;5.68;;;2.20;99.90;;;;;;6305122;22;20019;-83
2023/01/23 08:42:55;;;;;;;11.85;5.75;;;2.60;99.90;;;;;;6304750;22;20080;-83
2023/01/23 08:45:21;;;;;;;13.48;6.72;;;3.00;99.90;;;;;;6305546;22;20018;-83
2023/01/23 08:47:47;;;;;;;8.50;5.47;;;2.30;99.90;;;;;;6332144;22;20017;-83
2023/01/23 08:50:13;;;;;;;12.45;5.57;;;2.30;99.90;;;;;;6305403;22;20205;-83
2023/01/23 08:52:39;;;;;;;8.32;5.30;;;2.40;99.90;;;;;;6279938;22;20037;-84
2023/01/23 08:55:05;;;;;;;9.65;5.70;;;3.00;99.90;;;;;;6303565;22;20451;-82
2023/01/23 08:57:31;;;;;;;10.77;5.50;;;2.40;99.90;;;;;;6305843;22;20097;-84
2023/01/23 08:59:56;;;;;;;10.75;5.40;;;2.40;99.90;;;;;;6304438;22;20109;-85
2023/01/23 09:02:22;;;;;;;8.57;5.15;;;3.40;99.90;;;;;;6278722;22;20406;-84
2023/01/23 09:04:49;;;;;;;11.02;5.40;;;2.50;99.90;;;;;;6304611;22;20339;-83
2023/01/23 09:07:14;;;;;;;10.55;5.32;;;2.50;99.90;;;;;;6302471;22;20133;-84
2023/01/23 09:09:40;;;;;;;7.68;5.35;;;3.40;99.90;;;;;;6301900;22;20066;-83
2023/01/23 09:12:07;;;;;;;8.90;5.25;;;3.80;99.90;;;;;;6276291;22;20022;-83
2023/01/23 09:14:32;;;;;;;9.25;5.30;;;2.50;99.90;;;;;;6276266;22;20098;-83
2023/01/23 09:16:58;;;;;;;12.10;5.80;;;2.50;99.90;;;;;;6300590;22;20103;-83
2023/01/23 09:19:24;;;;;;;9.20;5.70;;;2.50;99.90;;;;;;6275613;22;20046;-83
2023/01/23 09:21:53;;;;;;;9.02;5.55;;;3.50;99.90;;;;;;6301771;22;20018;-83
2023/01/23 09:24:19;;;;;;;8.45;5.47;;;3.10;99.90;;;;;;6301246;22;20507;-84
2023/01/23 09:26:45;;;;;;;8.70;5.47;;;2.90;99.90;;;;;;6302125;22;20105;-83
2023/01/23 09:29:10;;;;;;;8.75;5.40;;;2.60;99.90;;;;;;6276300;22;20019;-83
2023/01/23 09:31:36;;;;;;;10.18;5.03;;;3.10;99.90;;;;;;6300610;22;20021;-84
2023/01/23 09:34:02;;;;;;;8.05;5.10;;;3.60;99.90;;;;;;6299168;22;20064;-83
2023/01/23 09:36:28;;;;;;;8.25;5.72;;;3.20;99.90;;;;;;6302457;22;20072;-83
2023/01/23 09:38:54;;;;;;;9.10;5.47;;;2.90;99.90;;;;;;6300565;22;20025;-83
2023/01/23 09:41:25;;;;;;;9.73;5.18;;;2.70;99.90;;;;;;6302208;22;20700;-83
2023/01/23 09:43:54;;;;;;;12.90;6.53;;;3.80;99.90;;;;;;6300291;22;20400;-83
2023/01/23 09:46:31;;;;;;;10.77;7.00;;;3.60;99.90;;;;;;6301380;22;20029;-83
2023/01/23 09:49:09;;;;;;;15.00;8.00;;;2.80;99.90;;;;;;6301673;22;20086;-82
2023/01/23 09:51:36;;;;;;;15.25;8.40;;;2.80;99.90;;;;;;6329289;22;20111;-83
2023/01/23 09:54:15;;;;;;;13.90;9.23;;;2.80;99.90;;;;;;6300887;22;20355;-82
2023/01/23 09:56:45;;;;;;;14.93;9.13;;;2.80;99.90;;;;;;6302516;22;20029;-82
2023/01/23 09:59:15;;;;;;;15.38;8.57;;;2.90;99.90;;;;;;6274725;22;20021;-83
2023/01/23 10:01:40;;;;;;;14.05;9.10;;;2.90;99.90;;;;;;6301753;22;20125;-83
2023/01/23 10:04:11;;;;;;;18.52;9.38;;;3.60;99.90;;;;;;6275044;22;20027;-83
2023/01/23 10:07:15;;;;;;;16.15;9.18;;;3.00;99.90;;;;;;6300830;22;20026;-82
2023/01/23 10:10:02;;;;;;;16.42;9.60;;;2.90;99.90;;;;;;6330067;22;20316;-83
2023/01/23 10:12:48;;;;;;;14.30;8.90;;;3.20;99.90;;;;;;6301452;22;20034;-83
2023/01/23 10:15:28;;;;;;;16.35;8.95;;;3.00;99.90;;;;;;6301038;22;20121;-83
2023/01/23 10:18:09;;;;;;;15.55;9.70;;;3.10;99.90;;;;;;6301739;22;20019;-83
2023/01/23 10:20:59;;;;;;;13.77;8.98;;;3.10;99.90;;;;;;6303384;22;20152;-83
2023/01/23 10:23:46;;;;;;;13.13;9.27;;;3.10;99.90;;;;;;6304618;22;20439;-83
2023/01/23 10:26:22;;;;;;;12.18;8.23;;;3.10;99.90;;;;;;6303543;22;20102;-83
2023/01/23 10:28:50;;;;;;;14.32;8.65;;;3.20;99.90;;;;;;6329445;22;20023;-83
2023/01/23 10:31:22;;;;;;;11.38;8.18;;;3.10;99.90;;;;;;6329979;22;20014;-80
2023/01/23 10:33:55;;;;;;;16.30;9.47;;;4.30;99.90;;;;;;6303282;22;20021;-81
2023/01/23 10:36:24;;;;;;;16.92;9.25;;;3.20;99.90;;;;;;6304761;22;20007;-81
2023/01/23 10:39:00;;;;;;;14.10;8.30;;;4.00;99.90;;;;;;6304503;22;20025;-80
2023/01/23 10:41:26;;;;;;;10.43;7.57;;;3.20;99.90;;;;;;6303135;22;20072;-81
2023/01/23 10:43:55;;;;;;;17.65;9.50;;;3.20;99.90;;;;;;6304788;22;20010;-83
2023/01/23 10:46:27;;;;;;;13.52;8.90;;;3.20;99.90;;;;;;6303416;22;20492;-83
2023/01/23 10:48:54;;;;;;;18.85;9.80;;;3.20;99.90;;;;;;6303306;22;20018;-84
2023/01/23 10:51:31;;;;;;;15.85;10.02;;;4.30;99.90;;;;;;6304511;22;20015;-83
2023/01/23 10:54:10;;;;;;;16.90;9.73;;;3.30;99.90;;;;;;6302826;22;20019;-83
2023/01/23 10:56:45;;;;;;;17.50;10.40;;;3.30;99.90;;;;;;6304874;22;20019;-83
2023/01/23 10:59:19;;;;;;;16.35;10.82;;;3.30;99.90;;;;;;6332365;22;20377;-83
2023/01/23 11:01:56;;;;;;;17.33;10.32;;;3.40;99.90;;;;;;6330901;22;20019;-83
2023/01/23 11:04:25;;;;;;;19.15;11.25;;;3.40;99.90;;;;;;6298561;22;20409;-83
2023/01/23 11:07:12;;;;;;;17.13;10.25;;;4.10;99.90;;;;;;6298649;22;20023;-83
2023/01/23 11:09:47;;;;;;;20.63;10.10;;;3.40;99.90;;;;;;6272721;22;20394;-84
2023/01/23 11:12:19;;;;;;;17.77;10.40;;;3.50;99.90;;;;;;6299500;22;20019;-83
2023/01/23 11:14:45;;;;;;;13.07;9.43;;;3.50;99.90;;;;;;6271871;22;20019;-83
2023/01/23 11:17:11;;;;;;;14.80;9.73;;;3.70;99.90;;;;;;6298037;22;20008;-83
2023/01/23 11:19:37;;;;;;;15.52;10.13;;;3.50;99.90;;;;;;6273078;22;20422;-83
2023/01/23 11:22:20;;;;;;;14.60;10.50;;;3.50;99.90;;;;;;6298098;22;20015;-84
2023/01/23 11:24:45;;;;;;;14.87;9.80;;;3.90;99.90;;;;;;6300715;22;20019;-83
2023/01/23 11:27:13;;;;;;;16.90;10.18;;;4.10;99.90;;;;;;6299391;22;20446;-83
2023/01/23 11:29:47;;;;;;;15.25;9.48;;;3.60;99.90;;;;;;6297915;22;20019;-83
2023/01/23 11:32:14;;;;;;;14.13;9.38;;;4.20;99.90;;;;;;6298522;22;20026;-83
2023/01/23 11:34:46;;;;;;;17.92;10.35;;;4.40;99.90;;;;;;6299260;22;20015;-83
2023/01/23 11:37:21;;;;;;;14.38;10.18;;;4.20;99.90;;;;;;6300003;22;20057;-83
2023/01/23 11:39:58;;;;;;;14.88;10.13;;;3.70;99.90;;;;;;6300369;22;20337;-83
2023/01/23 11:42:26;;;;;;;20.33;9.65;;;3.70;99.90;;;;;;6299482;22;20023;-83
2023/01/23 11:44:53;;;;;;;15.10;9.45;;;3.70;99.90;;;;;;6296903;22;20019;-83
2023/01/23 11:47:39;;;;;;;16.02;9.73;;;3.70;99.90;;;;;;6298877;22;20320;-83
2023/01/23 11:50:10;;;;;;;14.63;9.70;;;3.80;99.90;;;;;;6298759;22;20456;-83
2023/01/23 11:52:43;;;;;;;14.07;8.93;;;3.90;99.90;;;;;;6298840;22;20367;-84
2023/01/23 11:55:31;;;;;;;17.55;9.63;;;3.80;99.90;;;;;;6298819;22;20019;-83
2023/01/23 11:58:13;;;;;;;14.25;8.88;;;3.90;99.90;;;;;;6297031;22;20030;-83
2023/01/23 12:01:05;;;;;;;13.07;8.80;;;3.90;99.90;;;;;;6298297;22;20090;-83
2023/01/23 12:03:55;;;;;;;14.88;8.88;;;3.90;99.90;;;;;;6273635;22;20026;-83
2023/01/23 12:06:33;;;;;;;13.88;8.73;;;3.90;99.90;;;;;;6298590;22;20023;-83
2023/01/23 12:09:15;;;;;;;14.25;9.20;;;4.90;99.90;;;;;;6299030;22;20138;-83
2023/01/23 12:12:12;;;;;;;14.05;9.20;;;4.00;99.90;;;;;;6298759;22;20065;-83
2023/01/23 12:14:45;;;;;;;15.20;8.43;;;4.00;99.90;;;;;;6272761;22;20019;-83
2023/01/23 12:17:17;;;;;;;12.45;8.80;;;4.00;99.90;;;;;;6298991;22;20011;-83
2023/01/23 12:19:49;;;;;;;13.73;9.15;;;4.00;99.90;;;;;;6300201;22;20015;-83
2023/01/23 12:22:32;;;;;;;13.43;9.88;;;4.00;99.90;;;;;;6298841;22;20016;-83
2023/01/23 12:25:03;;;;;;;14.48;9.07;;;4.10;99.90;;;;;;6298060;22;20026;-82
2023/01/23 12:27:33;;;;;;;16.48;9.75;;;4.80;99.90;;;;;;6298591;22;20027;-83
2023/01/23 12:30:25;;;;;;;13.68;9.90;;;4.10;99.90;;;;;;6297562;22;20033;-83
2023/01/23 12:32:55;;;;;;;16.05;9.73;;;4.00;99.90;;;;;;6296943;22;20011;-83
2023/01/23 12:35:31;;;;;;;16.13;9.38;;;4.40;99.90;;;;;;6298212;22;20023;-83
2023/01/23 12:38:20;;;;;;;15.02;9.90;;;4.00;99.90;;;;;;6297819;22;20019;-83
2023/01/23 12:40:52;;;;;;;17.50;10.13;;;4.00;99.90;;;;;;6296517;22;20054;-83
2023/01/23 12:43:35;;;;;;;13.50;9.88;;;4.20;99.90;;;;;;6273483;22;20050;-83
2023/01/23 12:46:10;;;;;;;14.52;9.75;;;4.00;99.90;;;;;;6297231;22;20026;-83
2023/01/23 12:48:49;;;;;;;16.85;9.98;;;4.60;99.90;;;;;;6298049;22;20672;-83
2023/01/23 12:51:29;;;;;;;12.80;9.35;;;4.00;99.90;;;;;;6298943;22;20019;-83
2023/01/23 12:53:57;;;;;;;18.15;9.85;;;3.90;99.90;;;;;;6297381;22;20016;-83
2023/01/23 12:56:34;;;;;;;13.52;8.85;;;4.60;99.90;;;;;;6298949;22;20402;-83
2023/01/23 12:59:21;;;;;;;15.02;10.13;;;3.90;99.90;;;;;;6298304;22;20057;-83